sensor_id;sensor_type;location;lat;lon;timestamp;P1;durP1;ratioP1;P2;durP2;ratioP2
26963;SDS011;14521;48.148;-1.656;2022-10-16T00:00:42;0.40;;;0.30;;
26963;SDS011;14521;48.148;-1.656;2022-10-16T00:04:04;0.93;;;0.35;;
26963;SDS011;14521;48.148;-1.656;2022-10-16T00:07:26;2.92;;;0.50;;
26963;SDS011;14521;48.148;-1.656;2022-10-16T00:10:49;0.80;;;0.30;;
26963;SDS011;14521;48.148;-1.656;2022-10-16T00:14:12;0.90;;;0.40;;
26963;SDS011;14521;48.148;-1.656;2022-10-16T00:17:36;0.75;;;0.50;;
26963;SDS011;14521;48.148;-1.656;2022-10-16T00:21:05;2.67;;;0.50;;
26963;SDS011;14521;48.148;-1.656;2022-10-16T00:24:33;1.40;;;0.50;;
26963;SDS011;14521;48.148;-1.656;2022-10-16T00:27:55;0.35;;;0.30;;
26963;SDS011;14521;48.148;-1.656;2022-10-16T00:31:18;1.58;;;0.30;;
26963;SDS011;14521;48.148;-1.656;2022-10-16T00:34:42;1.45;;;0.63;;
26963;SDS011;14521;48.148;-1.656;2022-10-16T00:38:05;1.17;;;0.30;;
26963;SDS011;14521;48.148;-1.656;2022-10-16T00:41:27;1.55;;;0.40;;
26963;SDS011;14521;48.148;-1.656;2022-10-16T00:44:51;0.40;;;0.30;;
26963;SDS011;14521;48.148;-1.656;2022-10-16T00:48:18;2.20;;;0.30;;
26963;SDS011;14521;48.148;-1.656;2022-10-16T00:51:41;1.60;;;0.40;;
26963;SDS011;14521;48.148;-1.656;2022-10-16T00:55:15;0.70;;;0.30;;
26963;SDS011;14521;48.148;-1.656;2022-10-16T00:58:38;1.13;;;0.30;;
26963;SDS011;14521;48.148;-1.656;2022-10-16T01:02:01;0.93;;;0.45;;
26963;SDS011;14521;48.148;-1.656;2022-10-16T01:05:26;0.35;;;0.22;;
26963;SDS011;14521;48.148;-1.656;2022-10-16T01:16:19;0.40;;;0.40;;
26963;SDS011;14521;48.148;-1.656;2022-10-16T01:27:27;0.93;;;0.40;;
26963;SDS011;14521;48.148;-1.656;2022-10-16T01:30:52;1.42;;;0.38;;
26963;SDS011;14521;48.148;-1.656;2022-10-16T01:34:20;1.65;;;0.60;;
26963;SDS011;14521;48.148;-1.656;2022-10-16T01:37:55;2.05;;;0.40;;
26963;SDS011;14521;48.148;-1.656;2022-10-16T01:41:35;0.40;;;0.20;;
26963;SDS011;14521;48.148;-1.656;2022-10-16T01:45:03;0.75;;;0.35;;
26963;SDS011;14521;48.148;-1.656;2022-10-16T01:48:29;1.65;;;0.40;;
26963;SDS011;14521;48.148;-1.656;2022-10-16T01:51:55;1.38;;;0.47;;
26963;SDS011;14521;48.148;-1.656;2022-10-16T01:55:29;1.27;;;0.20;;
26963;SDS011;14521;48.148;-1.656;2022-10-16T01:59:00;1.00;;;0.45;;
26963;SDS011;14521;48.148;-1.656;2022-10-16T02:02:27;0.55;;;0.35;;
26963;SDS011;14521;48.148;-1.656;2022-10-16T02:05:55;0.88;;;0.52;;
26963;SDS011;14521;48.148;-1.656;2022-10-16T02:09:19;0.47;;;0.32;;
26963;SDS011;14521;48.148;-1.656;2022-10-16T02:12:42;0.43;;;0.30;;
26963;SDS011;14521;48.148;-1.656;2022-10-16T02:16:09;1.25;;;0.50;;
26963;SDS011;14521;48.148;-1.656;2022-10-16T02:19:33;1.73;;;0.40;;
26963;SDS011;14521;48.148;-1.656;2022-10-16T02:22:55;0.25;;;0.20;;
26963;SDS011;14521;48.148;-1.656;2022-10-16T02:26:26;0.93;;;0.25;;
26963;SDS011;14521;48.148;-1.656;2022-10-16T02:29:53;0.75;;;0.30;;
26963;SDS011;14521;48.148;-1.656;2022-10-16T02:33:20;1.08;;;0.40;;
26963;SDS011;14521;48.148;-1.656;2022-10-16T02:36:43;0.73;;;0.20;;
26963;SDS011;14521;48.148;-1.656;2022-10-16T02:40:08;1.07;;;0.30;;
26963;SDS011;14521;48.148;-1.656;2022-10-16T02:43:31;0.40;;;0.30;;
26963;SDS011;14521;48.148;-1.656;2022-10-16T02:46:55;0.57;;;0.40;;
26963;SDS011;14521;48.148;-1.656;2022-10-16T02:50:17;0.30;;;0.30;;
26963;SDS011;14521;48.148;-1.656;2022-10-16T02:53:39;0.55;;;0.40;;
26963;SDS011;14521;48.148;-1.656;2022-10-16T02:57:01;0.93;;;0.30;;
26963;SDS011;14521;48.148;-1.656;2022-10-16T03:00:24;0.75;;;0.30;;
26963;SDS011;14521;48.148;-1.656;2022-10-16T03:03:46;0.68;;;0.30;;
26963;SDS011;14521;48.148;-1.656;2022-10-16T03:07:08;1.10;;;0.35;;
26963;SDS011;14521;48.148;-1.656;2022-10-16T03:10:30;2.33;;;0.55;;
26963;SDS011;14521;48.148;-1.656;2022-10-16T03:13:52;0.60;;;0.35;;
26963;SDS011;14521;48.148;-1.656;2022-10-16T03:17:15;1.00;;;0.38;;
26963;SDS011;14521;48.148;-1.656;2022-10-16T03:20:38;1.40;;;0.28;;
26963;SDS011;14521;48.148;-1.656;2022-10-16T03:24:00;0.43;;;0.30;;
26963;SDS011;14521;48.148;-1.656;2022-10-16T03:27:22;0.30;;;0.30;;
26963;SDS011;14521;48.148;-1.656;2022-10-16T03:30:45;0.55;;;0.30;;
26963;SDS011;14521;48.148;-1.656;2022-10-16T03:34:07;0.73;;;0.22;;
26963;SDS011;14521;48.148;-1.656;2022-10-16T03:37:29;0.30;;;0.25;;
26963;SDS011;14521;48.148;-1.656;2022-10-16T03:40:51;2.03;;;0.40;;
26963;SDS011;14521;48.148;-1.656;2022-10-16T03:44:14;0.70;;;0.38;;
26963;SDS011;14521;48.148;-1.656;2022-10-16T03:47:36;0.75;;;0.32;;
26963;SDS011;14521;48.148;-1.656;2022-10-16T03:50:58;1.10;;;0.40;;
26963;SDS011;14521;48.148;-1.656;2022-10-16T03:54:20;0.57;;;0.40;;
26963;SDS011;14521;48.148;-1.656;2022-10-16T03:57:43;1.27;;;0.40;;
26963;SDS011;14521;48.148;-1.656;2022-10-16T04:01:05;0.75;;;0.40;;
26963;SDS011;14521;48.148;-1.656;2022-10-16T04:04:28;0.93;;;0.40;;
26963;SDS011;14521;48.148;-1.656;2022-10-16T04:07:50;2.55;;;0.43;;
26963;SDS011;14521;48.148;-1.656;2022-10-16T04:11:12;1.23;;;0.50;;
26963;SDS011;14521;48.148;-1.656;2022-10-16T04:14:34;1.70;;;0.40;;
26963;SDS011;14521;48.148;-1.656;2022-10-16T04:17:56;1.08;;;0.40;;
26963;SDS011;14521;48.148;-1.656;2022-10-16T04:21:19;1.10;;;0.47;;
26963;SDS011;14521;48.148;-1.656;2022-10-16T04:24:41;1.35;;;0.50;;
26963;SDS011;14521;48.148;-1.656;2022-10-16T04:28:03;0.70;;;0.52;;
26963;SDS011;14521;48.148;-1.656;2022-10-16T04:31:25;1.60;;;0.50;;
26963;SDS011;14521;48.148;-1.656;2022-10-16T04:34:48;1.20;;;0.65;;
26963;SDS011;14521;48.148;-1.656;2022-10-16T04:38:10;1.15;;;0.40;;
26963;SDS011;14521;48.148;-1.656;2022-10-16T04:41:32;0.47;;;0.47;;
26963;SDS011;14521;48.148;-1.656;2022-10-16T04:44:54;0.95;;;0.57;;
26963;SDS011;14521;48.148;-1.656;2022-10-16T04:48:17;0.40;;;0.40;;
26963;SDS011;14521;48.148;-1.656;2022-10-16T04:51:39;1.65;;;0.50;;
26963;SDS011;14521;48.148;-1.656;2022-10-16T04:55:02;0.75;;;0.60;;
26963;SDS011;14521;48.148;-1.656;2022-10-16T04:58:24;1.10;;;0.55;;
26963;SDS011;14521;48.148;-1.656;2022-10-16T05:01:46;1.20;;;0.60;;
26963;SDS011;14521;48.148;-1.656;2022-10-16T05:05:09;0.63;;;0.52;;
26963;SDS011;14521;48.148;-1.656;2022-10-16T05:08:31;0.57;;;0.50;;
26963;SDS011;14521;48.148;-1.656;2022-10-16T05:11:53;0.75;;;0.52;;
26963;SDS011;14521;48.148;-1.656;2022-10-16T05:15:15;2.60;;;0.47;;
26963;SDS011;14521;48.148;-1.656;2022-10-16T05:18:37;1.30;;;0.43;;
26963;SDS011;14521;48.148;-1.656;2022-10-16T05:22:00;1.42;;;0.40;;
26963;SDS011;14521;48.148;-1.656;2022-10-16T05:25:22;0.93;;;0.50;;
26963;SDS011;14521;48.148;-1.656;2022-10-16T05:28:44;0.98;;;0.55;;
26963;SDS011;14521;48.148;-1.656;2022-10-16T05:32:06;1.50;;;0.50;;
26963;SDS011;14521;48.148;-1.656;2022-10-16T05:35:29;1.55;;;0.43;;
26963;SDS011;14521;48.148;-1.656;2022-10-16T05:38:51;0.63;;;0.40;;
26963;SDS011;14521;48.148;-1.656;2022-10-16T05:42:14;0.43;;;0.40;;
26963;SDS011;14521;48.148;-1.656;2022-10-16T05:45:36;2.78;;;0.70;;
26963;SDS011;14521;48.148;-1.656;2022-10-16T05:48:58;0.98;;;0.50;;
26963;SDS011;14521;48.148;-1.656;2022-10-16T05:52:21;0.98;;;0.90;;
26963;SDS011;14521;48.148;-1.656;2022-10-16T05:55:43;0.88;;;0.60;;
26963;SDS011;14521;48.148;-1.656;2022-10-16T05:59:12;0.95;;;0.68;;
26963;SDS011;14521;48.148;-1.656;2022-10-16T06:02:34;0.63;;;0.52;;
26963;SDS011;14521;48.148;-1.656;2022-10-16T06:05:57;4.65;;;0.90;;
26963;SDS011;14521;48.148;-1.656;2022-10-16T06:09:19;1.02;;;0.73;;
26963;SDS011;14521;48.148;-1.656;2022-10-16T06:12:41;1.33;;;0.60;;
26963;SDS011;14521;48.148;-1.656;2022-10-16T06:16:03;2.40;;;0.90;;
26963;SDS011;14521;48.148;-1.656;2022-10-16T06:19:26;1.13;;;0.68;;
26963;SDS011;14521;48.148;-1.656;2022-10-16T06:22:48;1.02;;;0.70;;
26963;SDS011;14521;48.148;-1.656;2022-10-16T06:26:11;3.72;;;1.00;;
26963;SDS011;14521;48.148;-1.656;2022-10-16T06:29:35;0.93;;;0.80;;
26963;SDS011;14521;48.148;-1.656;2022-10-16T06:32:57;3.60;;;0.60;;
26963;SDS011;14521;48.148;-1.656;2022-10-16T06:36:19;3.00;;;0.80;;
26963;SDS011;14521;48.148;-1.656;2022-10-16T06:39:42;2.38;;;0.90;;
26963;SDS011;14521;48.148;-1.656;2022-10-16T06:43:04;2.30;;;1.02;;
26963;SDS011;14521;48.148;-1.656;2022-10-16T06:46:26;1.20;;;0.60;;
26963;SDS011;14521;48.148;-1.656;2022-10-16T06:49:49;1.05;;;0.77;;
26963;SDS011;14521;48.148;-1.656;2022-10-16T06:53:15;3.65;;;1.00;;
26963;SDS011;14521;48.148;-1.656;2022-10-16T06:56:37;7.63;;;1.02;;
26963;SDS011;14521;48.148;-1.656;2022-10-16T06:59:59;1.38;;;0.90;;
26963;SDS011;14521;48.148;-1.656;2022-10-16T07:03:22;1.83;;;0.88;;
26963;SDS011;14521;48.148;-1.656;2022-10-16T07:06:44;1.10;;;0.95;;
26963;SDS011;14521;48.148;-1.656;2022-10-16T07:10:06;0.77;;;0.60;;
26963;SDS011;14521;48.148;-1.656;2022-10-16T07:13:29;0.85;;;0.80;;
26963;SDS011;14521;48.148;-1.656;2022-10-16T07:16:51;1.52;;;0.80;;
26963;SDS011;14521;48.148;-1.656;2022-10-16T07:20:13;1.73;;;0.70;;
26963;SDS011;14521;48.148;-1.656;2022-10-16T07:23:36;1.23;;;0.80;;
26963;SDS011;14521;48.148;-1.656;2022-10-16T07:26:58;1.70;;;0.98;;
26963;SDS011;14521;48.148;-1.656;2022-10-16T07:30:20;1.40;;;0.90;;
26963;SDS011;14521;48.148;-1.656;2022-10-16T07:33:43;0.52;;;0.52;;
26963;SDS011;14521;48.148;-1.656;2022-10-16T07:37:06;0.70;;;0.70;;
26963;SDS011;14521;48.148;-1.656;2022-10-16T07:40:28;1.02;;;0.70;;
26963;SDS011;14521;48.148;-1.656;2022-10-16T07:43:51;1.55;;;0.95;;
26963;SDS011;14521;48.148;-1.656;2022-10-16T07:47:14;3.10;;;0.73;;
26963;SDS011;14521;48.148;-1.656;2022-10-16T07:50:36;0.70;;;0.70;;
26963;SDS011;14521;48.148;-1.656;2022-10-16T07:53:59;1.10;;;1.00;;
26963;SDS011;14521;48.148;-1.656;2022-10-16T07:57:21;2.17;;;1.02;;
26963;SDS011;14521;48.148;-1.656;2022-10-16T08:00:43;1.73;;;0.80;;
26963;SDS011;14521;48.148;-1.656;2022-10-16T08:04:06;1.30;;;0.90;;
26963;SDS011;14521;48.148;-1.656;2022-10-16T08:07:28;2.05;;;0.90;;
26963;SDS011;14521;48.148;-1.656;2022-10-16T08:10:50;3.83;;;0.75;;
26963;SDS011;14521;48.148;-1.656;2022-10-16T08:14:12;2.30;;;0.90;;
26963;SDS011;14521;48.148;-1.656;2022-10-16T08:17:34;2.80;;;1.20;;
26963;SDS011;14521;48.148;-1.656;2022-10-16T08:20:57;1.65;;;0.70;;
26963;SDS011;14521;48.148;-1.656;2022-10-16T08:24:21;1.15;;;0.80;;
26963;SDS011;14521;48.148;-1.656;2022-10-16T08:27:44;0.60;;;0.60;;
26963;SDS011;14521;48.148;-1.656;2022-10-16T08:31:07;4.10;;;0.80;;
26963;SDS011;14521;48.148;-1.656;2022-10-16T08:34:31;0.88;;;0.60;;
26963;SDS011;14521;48.148;-1.656;2022-10-16T08:37:53;3.63;;;0.80;;
26963;SDS011;14521;48.148;-1.656;2022-10-16T08:41:28;1.40;;;0.50;;
26963;SDS011;14521;48.148;-1.656;2022-10-16T08:48:52;2.70;;;0.55;;
26963;SDS011;14521;48.148;-1.656;2022-10-16T08:52:16;0.65;;;0.50;;
26963;SDS011;14521;48.148;-1.656;2022-10-16T08:55:42;1.77;;;0.52;;
26963;SDS011;14521;48.148;-1.656;2022-10-16T08:59:10;0.82;;;0.57;;
26963;SDS011;14521;48.148;-1.656;2022-10-16T09:02:37;0.50;;;0.50;;
26963;SDS011;14521;48.148;-1.656;2022-10-16T09:13:31;2.45;;;0.47;;
26963;SDS011;14521;48.148;-1.656;2022-10-16T09:24:29;2.78;;;0.40;;
26963;SDS011;14521;48.148;-1.656;2022-10-16T09:27:52;3.53;;;0.45;;
26963;SDS011;14521;48.148;-1.656;2022-10-16T09:31:16;2.25;;;0.30;;
26963;SDS011;14521;48.148;-1.656;2022-10-16T09:38:05;1.15;;;0.30;;
26963;SDS011;14521;48.148;-1.656;2022-10-16T09:41:28;3.90;;;0.40;;
26963;SDS011;14521;48.148;-1.656;2022-10-16T09:44:51;2.17;;;0.28;;
26963;SDS011;14521;48.148;-1.656;2022-10-16T09:48:17;1.30;;;0.43;;
26963;SDS011;14521;48.148;-1.656;2022-10-16T09:51:42;1.83;;;0.40;;
26963;SDS011;14521;48.148;-1.656;2022-10-16T09:55:14;3.95;;;0.30;;
26963;SDS011;14521;48.148;-1.656;2022-10-16T09:58:38;0.60;;;0.25;;
26963;SDS011;14521;48.148;-1.656;2022-10-16T10:02:10;2.55;;;0.30;;
26963;SDS011;14521;48.148;-1.656;2022-10-16T10:05:35;0.60;;;0.20;;
26963;SDS011;14521;48.148;-1.656;2022-10-16T10:09:02;0.50;;;0.30;;
26963;SDS011;14521;48.148;-1.656;2022-10-16T10:12:44;2.08;;;0.30;;
26963;SDS011;14521;48.148;-1.656;2022-10-16T10:16:07;1.35;;;0.20;;
26963;SDS011;14521;48.148;-1.656;2022-10-16T10:19:29;0.88;;;0.63;;
26963;SDS011;14521;48.148;-1.656;2022-10-16T10:22:58;0.52;;;0.20;;
26963;SDS011;14521;48.148;-1.656;2022-10-16T10:26:21;1.50;;;0.30;;
26963;SDS011;14521;48.148;-1.656;2022-10-16T10:29:54;1.35;;;0.20;;
26963;SDS011;14521;48.148;-1.656;2022-10-16T10:33:44;1.65;;;0.38;;
26963;SDS011;14521;48.148;-1.656;2022-10-16T10:40:54;3.50;;;0.50;;
26963;SDS011;14521;48.148;-1.656;2022-10-16T10:51:42;1.98;;;0.32;;
26963;SDS011;14521;48.148;-1.656;2022-10-16T10:55:20;1.25;;;0.40;;
26963;SDS011;14521;48.148;-1.656;2022-10-16T11:06:26;0.90;;;0.47;;
26963;SDS011;14521;48.148;-1.656;2022-10-16T11:09:53;0.65;;;0.30;;
26963;SDS011;14521;48.148;-1.656;2022-10-16T11:17:10;1.50;;;0.50;;
26963;SDS011;14521;48.148;-1.656;2022-10-16T11:21:02;1.88;;;0.60;;
26963;SDS011;14521;48.148;-1.656;2022-10-16T11:28:21;1.42;;;0.40;;
26963;SDS011;14521;48.148;-1.656;2022-10-16T11:32:05;2.92;;;0.30;;
26963;SDS011;14521;48.148;-1.656;2022-10-16T11:39:33;4.97;;;0.40;;
26963;SDS011;14521;48.148;-1.656;2022-10-16T11:43:08;0.77;;;0.15;;
26963;SDS011;14521;48.148;-1.656;2022-10-16T11:46:46;3.22;;;0.50;;
26963;SDS011;14521;48.148;-1.656;2022-10-16T11:50:45;0.75;;;0.30;;
26963;SDS011;14521;48.148;-1.656;2022-10-16T11:57:54;1.90;;;0.50;;
26963;SDS011;14521;48.148;-1.656;2022-10-16T12:01:36;0.45;;;0.30;;
26963;SDS011;14521;48.148;-1.656;2022-10-16T12:05:18;3.80;;;0.30;;
26963;SDS011;14521;48.148;-1.656;2022-10-16T12:08:51;1.67;;;0.30;;
26963;SDS011;14521;48.148;-1.656;2022-10-16T12:12:38;0.50;;;0.30;;
26963;SDS011;14521;48.148;-1.656;2022-10-16T12:19:35;1.08;;;0.30;;
26963;SDS011;14521;48.148;-1.656;2022-10-16T12:23:01;1.05;;;0.35;;
26963;SDS011;14521;48.148;-1.656;2022-10-16T12:26:32;0.73;;;0.35;;
26963;SDS011;14521;48.148;-1.656;2022-10-16T12:30:00;2.58;;;0.30;;
26963;SDS011;14521;48.148;-1.656;2022-10-16T12:33:25;1.65;;;0.32;;
26963;SDS011;14521;48.148;-1.656;2022-10-16T12:36:48;1.30;;;0.40;;
26963;SDS011;14521;48.148;-1.656;2022-10-16T12:40:14;4.22;;;0.57;;
26963;SDS011;14521;48.148;-1.656;2022-10-16T12:43:54;3.03;;;0.30;;
26963;SDS011;14521;48.148;-1.656;2022-10-16T12:47:23;0.32;;;0.20;;
26963;SDS011;14521;48.148;-1.656;2022-10-16T12:50:52;0.40;;;0.30;;
26963;SDS011;14521;48.148;-1.656;2022-10-16T12:54:19;3.28;;;0.50;;
26963;SDS011;14521;48.148;-1.656;2022-10-16T13:01:42;0.70;;;0.20;;
26963;SDS011;14521;48.148;-1.656;2022-10-16T13:19:55;0.98;;;0.47;;
26963;SDS011;14521;48.148;-1.656;2022-10-16T13:23:51;1.10;;;0.40;;
26963;SDS011;14521;48.148;-1.656;2022-10-16T13:30:59;1.85;;;0.32;;
26963;SDS011;14521;48.148;-1.656;2022-10-16T13:34:23;2.17;;;0.20;;
26963;SDS011;14521;48.148;-1.656;2022-10-16T13:37:46;0.70;;;0.28;;
26963;SDS011;14521;48.148;-1.656;2022-10-16T13:41:16;0.85;;;0.20;;
26963;SDS011;14521;48.148;-1.656;2022-10-16T13:44:40;3.05;;;0.30;;
26963;SDS011;14521;48.148;-1.656;2022-10-16T13:48:06;1.52;;;0.25;;
26963;SDS011;14521;48.148;-1.656;2022-10-16T13:51:33;0.43;;;0.20;;
26963;SDS011;14521;48.148;-1.656;2022-10-16T13:54:56;0.77;;;0.30;;
26963;SDS011;14521;48.148;-1.656;2022-10-16T13:58:22;1.30;;;0.40;;
26963;SDS011;14521;48.148;-1.656;2022-10-16T14:01:45;0.47;;;0.22;;
26963;SDS011;14521;48.148;-1.656;2022-10-16T14:05:07;1.58;;;0.10;;
26963;SDS011;14521;48.148;-1.656;2022-10-16T14:08:32;0.65;;;0.25;;
26963;SDS011;14521;48.148;-1.656;2022-10-16T14:11:55;4.25;;;0.30;;
26963;SDS011;14521;48.148;-1.656;2022-10-16T14:15:19;1.00;;;0.30;;
26963;SDS011;14521;48.148;-1.656;2022-10-16T14:18:41;4.50;;;0.20;;
26963;SDS011;14521;48.148;-1.656;2022-10-16T14:25:53;0.63;;;0.20;;
26963;SDS011;14521;48.148;-1.656;2022-10-16T14:29:19;1.05;;;0.20;;
26963;SDS011;14521;48.148;-1.656;2022-10-16T14:32:42;0.77;;;0.30;;
26963;SDS011;14521;48.148;-1.656;2022-10-16T14:36:15;1.05;;;0.40;;
26963;SDS011;14521;48.148;-1.656;2022-10-16T14:39:40;0.30;;;0.20;;
26963;SDS011;14521;48.148;-1.656;2022-10-16T14:43:02;0.50;;;0.30;;
26963;SDS011;14521;48.148;-1.656;2022-10-16T14:46:30;1.98;;;0.40;;
26963;SDS011;14521;48.148;-1.656;2022-10-16T14:49:57;0.30;;;0.30;;
26963;SDS011;14521;48.148;-1.656;2022-10-16T14:53:21;0.60;;;0.30;;
26963;SDS011;14521;48.148;-1.656;2022-10-16T15:00:20;1.60;;;0.20;;
26963;SDS011;14521;48.148;-1.656;2022-10-16T15:03:44;0.38;;;0.10;;
26963;SDS011;14521;48.148;-1.656;2022-10-16T15:07:07;0.30;;;0.30;;
26963;SDS011;14521;48.148;-1.656;2022-10-16T15:10:30;0.65;;;0.20;;
26963;SDS011;14521;48.148;-1.656;2022-10-16T15:13:54;0.28;;;0.22;;
26963;SDS011;14521;48.148;-1.656;2022-10-16T15:17:16;1.20;;;0.10;;
26963;SDS011;14521;48.148;-1.656;2022-10-16T15:20:42;0.25;;;0.13;;
26963;SDS011;14521;48.148;-1.656;2022-10-16T15:24:05;4.05;;;0.30;;
26963;SDS011;14521;48.148;-1.656;2022-10-16T15:27:38;0.65;;;0.10;;
26963;SDS011;14521;48.148;-1.656;2022-10-16T15:31:02;0.22;;;0.22;;
26963;SDS011;14521;48.148;-1.656;2022-10-16T15:37:49;0.20;;;0.13;;
26963;SDS011;14521;48.148;-1.656;2022-10-16T15:41:11;0.30;;;0.20;;
26963;SDS011;14521;48.148;-1.656;2022-10-16T15:44:33;0.85;;;0.20;;
26963;SDS011;14521;48.148;-1.656;2022-10-16T15:47:55;0.95;;;0.28;;
26963;SDS011;14521;48.148;-1.656;2022-10-16T15:51:18;0.57;;;0.20;;
26963;SDS011;14521;48.148;-1.656;2022-10-16T15:54:40;0.50;;;0.30;;
26963;SDS011;14521;48.148;-1.656;2022-10-16T15:58:03;0.20;;;0.20;;
26963;SDS011;14521;48.148;-1.656;2022-10-16T16:01:26;0.50;;;0.30;;
26963;SDS011;14521;48.148;-1.656;2022-10-16T16:04:50;2.65;;;0.38;;
26963;SDS011;14521;48.148;-1.656;2022-10-16T16:08:12;1.45;;;0.20;;
26963;SDS011;14521;48.148;-1.656;2022-10-16T16:11:34;1.17;;;0.30;;
26963;SDS011;14521;48.148;-1.656;2022-10-16T16:15:00;2.15;;;0.22;;
26963;SDS011;14521;48.148;-1.656;2022-10-16T16:18:26;0.20;;;0.20;;
26963;SDS011;14521;48.148;-1.656;2022-10-16T16:21:50;0.73;;;0.30;;
26963;SDS011;14521;48.148;-1.656;2022-10-16T16:25:12;0.20;;;0.20;;
26963;SDS011;14521;48.148;-1.656;2022-10-16T16:28:34;0.30;;;0.30;;
26963;SDS011;14521;48.148;-1.656;2022-10-16T16:31:58;0.30;;;0.30;;
26963;SDS011;14521;48.148;-1.656;2022-10-16T16:35:21;0.40;;;0.32;;
26963;SDS011;14521;48.148;-1.656;2022-10-16T16:38:43;0.40;;;0.35;;
26963;SDS011;14521;48.148;-1.656;2022-10-16T16:42:06;0.57;;;0.20;;
26963;SDS011;14521;48.148;-1.656;2022-10-16T16:45:29;0.45;;;0.28;;
26963;SDS011;14521;48.148;-1.656;2022-10-16T16:48:51;2.70;;;0.30;;
26963;SDS011;14521;48.148;-1.656;2022-10-16T16:52:16;0.40;;;0.40;;
26963;SDS011;14521;48.148;-1.656;2022-10-16T16:55:39;1.13;;;0.30;;
26963;SDS011;14521;48.148;-1.656;2022-10-16T16:59:01;0.50;;;0.30;;
26963;SDS011;14521;48.148;-1.656;2022-10-16T17:02:23;3.03;;;0.45;;
26963;SDS011;14521;48.148;-1.656;2022-10-16T17:05:59;1.60;;;0.40;;
26963;SDS011;14521;48.148;-1.656;2022-10-16T17:09:26;0.40;;;0.30;;
26963;SDS011;14521;48.148;-1.656;2022-10-16T17:12:49;1.83;;;0.52;;
26963;SDS011;14521;48.148;-1.656;2022-10-16T17:16:12;1.08;;;0.38;;
26963;SDS011;14521;48.148;-1.656;2022-10-16T17:19:34;0.45;;;0.40;;
26963;SDS011;14521;48.148;-1.656;2022-10-16T17:22:56;1.40;;;0.47;;
26963;SDS011;14521;48.148;-1.656;2022-10-16T17:26:18;2.80;;;0.40;;
26963;SDS011;14521;48.148;-1.656;2022-10-16T17:29:41;0.75;;;0.70;;
26963;SDS011;14521;48.148;-1.656;2022-10-16T17:33:04;2.92;;;0.63;;
26963;SDS011;14521;48.148;-1.656;2022-10-16T17:36:27;3.83;;;0.63;;
26963;SDS011;14521;48.148;-1.656;2022-10-16T17:39:51;0.82;;;0.80;;
26963;SDS011;14521;48.148;-1.656;2022-10-16T17:43:13;1.13;;;0.52;;
26963;SDS011;14521;48.148;-1.656;2022-10-16T17:46:36;0.63;;;0.60;;
26963;SDS011;14521;48.148;-1.656;2022-10-16T17:50:04;2.00;;;0.73;;
26963;SDS011;14521;48.148;-1.656;2022-10-16T17:56:49;1.45;;;0.77;;
26963;SDS011;14521;48.148;-1.656;2022-10-16T18:00:11;2.20;;;1.20;;
26963;SDS011;14521;48.148;-1.656;2022-10-16T18:03:34;3.22;;;1.10;;
26963;SDS011;14521;48.148;-1.656;2022-10-16T18:06:56;4.20;;;0.80;;
26963;SDS011;14521;48.148;-1.656;2022-10-16T18:10:18;3.00;;;1.00;;
26963;SDS011;14521;48.148;-1.656;2022-10-16T18:13:41;0.95;;;0.95;;
26963;SDS011;14521;48.148;-1.656;2022-10-16T18:17:04;0.98;;;0.98;;
26963;SDS011;14521;48.148;-1.656;2022-10-16T18:20:26;1.77;;;0.90;;
26963;SDS011;14521;48.148;-1.656;2022-10-16T18:23:48;3.08;;;0.95;;
26963;SDS011;14521;48.148;-1.656;2022-10-16T18:27:13;1.30;;;1.20;;
26963;SDS011;14521;48.148;-1.656;2022-10-16T18:30:35;0.95;;;0.95;;
26963;SDS011;14521;48.148;-1.656;2022-10-16T18:33:57;2.53;;;0.80;;
26963;SDS011;14521;48.148;-1.656;2022-10-16T18:37:19;1.00;;;0.90;;
26963;SDS011;14521;48.148;-1.656;2022-10-16T18:40:42;2.50;;;1.00;;
26963;SDS011;14521;48.148;-1.656;2022-10-16T18:44:05;1.25;;;1.08;;
26963;SDS011;14521;48.148;-1.656;2022-10-16T18:47:28;1.00;;;0.90;;
26963;SDS011;14521;48.148;-1.656;2022-10-16T18:50:50;1.15;;;1.08;;
26963;SDS011;14521;48.148;-1.656;2022-10-16T18:54:13;0.90;;;0.90;;
26963;SDS011;14521;48.148;-1.656;2022-10-16T18:57:35;1.85;;;0.90;;
26963;SDS011;14521;48.148;-1.656;2022-10-16T19:01:01;1.13;;;1.00;;
26963;SDS011;14521;48.148;-1.656;2022-10-16T19:04:25;4.15;;;1.30;;
26963;SDS011;14521;48.148;-1.656;2022-10-16T19:07:47;6.85;;;1.27;;
26963;SDS011;14521;48.148;-1.656;2022-10-16T19:11:13;1.15;;;1.08;;
26963;SDS011;14521;48.148;-1.656;2022-10-16T19:14:37;3.47;;;0.90;;
26963;SDS011;14521;48.148;-1.656;2022-10-16T19:17:59;2.60;;;1.08;;
26963;SDS011;14521;48.148;-1.656;2022-10-16T19:21:23;1.33;;;1.25;;
26963;SDS011;14521;48.148;-1.656;2022-10-16T19:24:46;2.17;;;1.10;;
26963;SDS011;14521;48.148;-1.656;2022-10-16T19:28:08;1.10;;;1.00;;
26963;SDS011;14521;48.148;-1.656;2022-10-16T19:31:30;2.92;;;1.00;;
26963;SDS011;14521;48.148;-1.656;2022-10-16T19:34:53;1.20;;;1.20;;
26963;SDS011;14521;48.148;-1.656;2022-10-16T19:38:17;1.45;;;0.85;;
26963;SDS011;14521;48.148;-1.656;2022-10-16T19:41:39;2.13;;;1.00;;
26963;SDS011;14521;48.148;-1.656;2022-10-16T19:45:02;1.92;;;1.10;;
26963;SDS011;14521;48.148;-1.656;2022-10-16T19:48:25;0.95;;;0.90;;
26963;SDS011;14521;48.148;-1.656;2022-10-16T19:51:48;2.13;;;1.13;;
26963;SDS011;14521;48.148;-1.656;2022-10-16T19:55:12;1.40;;;1.23;;
26963;SDS011;14521;48.148;-1.656;2022-10-16T19:58:34;1.40;;;1.30;;
26963;SDS011;14521;48.148;-1.656;2022-10-16T20:01:56;1.38;;;1.20;;
26963;SDS011;14521;48.148;-1.656;2022-10-16T20:05:18;1.30;;;1.20;;
26963;SDS011;14521;48.148;-1.656;2022-10-16T20:08:41;3.92;;;0.95;;
26963;SDS011;14521;48.148;-1.656;2022-10-16T20:12:06;1.83;;;1.33;;
26963;SDS011;14521;48.148;-1.656;2022-10-16T20:15:28;1.50;;;1.40;;
26963;SDS011;14521;48.148;-1.656;2022-10-16T20:18:50;2.08;;;1.20;;
26963;SDS011;14521;48.148;-1.656;2022-10-16T20:22:13;3.20;;;1.27;;
26963;SDS011;14521;48.148;-1.656;2022-10-16T20:25:36;2.42;;;1.17;;
26963;SDS011;14521;48.148;-1.656;2022-10-16T20:28:59;1.40;;;1.30;;
26963;SDS011;14521;48.148;-1.656;2022-10-16T20:32:22;1.25;;;1.15;;
26963;SDS011;14521;48.148;-1.656;2022-10-16T20:35:46;3.28;;;1.27;;
26963;SDS011;14521;48.148;-1.656;2022-10-16T20:42:34;1.60;;;1.42;;
26963;SDS011;14521;48.148;-1.656;2022-10-16T20:46:03;1.50;;;1.40;;
26963;SDS011;14521;48.148;-1.656;2022-10-16T20:49:26;2.47;;;1.25;;
26963;SDS011;14521;48.148;-1.656;2022-10-16T20:53:01;1.60;;;1.23;;
26963;SDS011;14521;48.148;-1.656;2022-10-16T20:56:24;1.40;;;1.30;;
26963;SDS011;14521;48.148;-1.656;2022-10-16T20:59:48;4.15;;;1.30;;
26963;SDS011;14521;48.148;-1.656;2022-10-16T21:03:15;1.60;;;1.50;;
26963;SDS011;14521;48.148;-1.656;2022-10-16T21:06:37;1.90;;;1.30;;
26963;SDS011;14521;48.148;-1.656;2022-10-16T21:10:00;1.77;;;1.30;;
26963;SDS011;14521;48.148;-1.656;2022-10-16T21:13:22;1.40;;;1.30;;
26963;SDS011;14521;48.148;-1.656;2022-10-16T21:16:51;1.63;;;1.27;;
26963;SDS011;14521;48.148;-1.656;2022-10-16T21:20:13;3.15;;;1.20;;
26963;SDS011;14521;48.148;-1.656;2022-10-16T21:23:35;3.08;;;1.50;;
26963;SDS011;14521;48.148;-1.656;2022-10-16T21:26:57;5.05;;;1.67;;
26963;SDS011;14521;48.148;-1.656;2022-10-16T21:30:19;1.92;;;1.33;;
26963;SDS011;14521;48.148;-1.656;2022-10-16T21:33:42;1.23;;;1.13;;
26963;SDS011;14521;48.148;-1.656;2022-10-16T21:37:04;1.50;;;1.38;;
26963;SDS011;14521;48.148;-1.656;2022-10-16T21:40:28;1.30;;;1.15;;
26963;SDS011;14521;48.148;-1.656;2022-10-16T21:43:50;1.77;;;1.33;;
26963;SDS011;14521;48.148;-1.656;2022-10-16T21:47:12;1.40;;;1.30;;
26963;SDS011;14521;48.148;-1.656;2022-10-16T21:50:34;2.67;;;1.13;;
26963;SDS011;14521;48.148;-1.656;2022-10-16T21:53:57;1.23;;;1.23;;
26963;SDS011;14521;48.148;-1.656;2022-10-16T21:57:19;1.50;;;1.40;;
26963;SDS011;14521;48.148;-1.656;2022-10-16T22:00:41;1.60;;;1.50;;
26963;SDS011;14521;48.148;-1.656;2022-10-16T22:04:03;1.63;;;1.33;;
26963;SDS011;14521;48.148;-1.656;2022-10-16T22:07:26;2.88;;;1.30;;